Time;durP1;ratioP1;P1;durP2;ratioP2;P2;SDS_P1;SDS_P2;PMS_P1;PMS_P2;Temp;Humidity;BMP_temperature;BMP_pressure;BME280_temperature;BME280_humidity;BME280_pressure;Samples;Min_cycle;Max_cycle;Signal;HPM_P1;HPM_P2
2022/06/05 00:02:36;;;;;;;;;;;18.60;99.90;;;;;;8394788;28;19924;-74
2022/06/05 00:06:38;;;;;;;;;;;18.60;99.90;;;;;;8396914;28;19931;-74
2022/06/05 00:10:57;;;;;;;;;;;18.50;99.90;;;;;;8382839;28;20004;-73
2022/06/05 00:14:59;;;;;;;;;;;18.40;99.90;;;;;;8422186;28;19924;-73
2022/06/05 00:19:02;;;;;;;;;;;18.30;99.90;;;;;;8388122;28;19927;-73
2022/06/05 00:23:04;;;;;;;;;;;18.30;99.90;;;;;;8395743;28;19928;-73
2022/06/05 00:27:28;;;;;;;;;;;18.20;99.90;;;;;;8406821;28;20182;-73
2022/06/05 00:31:40;;;;;;;;;;;18.20;99.90;;;;;;8385187;28;19924;-73
2022/06/05 00:36:00;;;;;;;;;;;18.10;99.90;;;;;;8381686;28;19924;-73
2022/06/05 00:40:05;;;;;;;;;;;18.10;99.90;;;;;;8381638;28;19932;-73
2022/06/05 00:44:07;;;;;;;;;;;18.00;99.90;;;;;;8393721;28;19925;-74
2022/06/05 00:48:10;;;;;;;;;;;18.10;99.90;;;;;;8387008;28;19936;-74
2022/06/05 00:52:13;;;;;;;;;;;18.00;99.90;;;;;;8388991;28;19966;-73
2022/06/05 00:56:15;;;;;;;;;;;18.00;99.90;;;;;;8394278;28;20371;-73
2022/06/05 01:00:18;;;;;;;;;;;18.00;99.90;;;;;;8385797;28;19925;-73
2022/06/05 01:04:20;;;;;;;;;;;17.90;99.90;;;;;;8395855;28;19929;-73
2022/06/05 01:08:22;;;;;;;;;;;17.80;99.90;;;;;;8383773;28;19932;-74
2022/06/05 01:12:33;;;;;;;;;;;17.80;99.90;;;;;;8400249;28;20383;-73
2022/06/05 01:16:42;;;;;;;;;;;17.80;99.90;;;;;;8392904;28;20425;-73
2022/06/05 01:20:55;;;;;;;;;;;17.70;99.90;;;;;;8390729;28;19935;-73
2022/06/05 01:25:09;;;;;;;;;;;17.70;99.90;;;;;;8385935;28;19950;-73
2022/06/05 01:29:35;;;;;;;;;;;17.70;99.90;;;;;;8385227;28;19935;-73
2022/06/05 01:33:39;;;;;;;;;;;17.60;99.90;;;;;;8382053;28;20398;-73
2022/06/05 01:37:46;;;;;;;;;;;17.50;99.90;;;;;;8387959;28;19963;-73
2022/06/05 01:41:49;;;;;;;;;;;17.50;99.90;;;;;;8383726;28;19931;-73
2022/06/05 01:45:50;;;;;;;;;;;17.50;99.90;;;;;;8382681;28;19969;-73
2022/06/05 01:50:00;;;;;;;;;;;17.40;99.90;;;;;;8383366;28;20059;-73
2022/06/05 01:54:06;;;;;;;;;;;17.40;99.90;;;;;;8387947;28;20287;-73
2022/06/05 01:58:11;;;;;;;;;;;17.40;99.90;;;;;;8382870;28;19933;-73
2022/06/05 02:02:14;;;;;;;;;;;17.40;99.90;;;;;;8390689;28;19943;-73
2022/06/05 02:06:21;;;;;;;;;;;17.30;99.90;;;;;;8388017;28;19924;-73
2022/06/05 02:10:24;;;;;;;;;;;17.30;99.90;;;;;;8413733;28;19925;-73
2022/06/05 02:14:26;;;;;;;;;;;17.30;99.90;;;;;;8389180;28;19924;-73
2022/06/05 02:18:27;;;;;;;;;;;17.20;99.90;;;;;;8384981;28;19924;-73
2022/06/05 02:22:32;;;;;;;;;;;17.20;99.90;;;;;;8383950;28;19925;-73
2022/06/05 02:26:34;;;;;;;;;;;17.20;99.90;;;;;;8380886;28;20314;-73
2022/06/05 02:30:45;;;;;;;;;;;17.10;99.90;;;;;;8383578;28;19929;-73
2022/06/05 02:34:59;;;;;;;;;;;17.10;99.90;;;;;;8387126;28;19924;-73
2022/06/05 02:39:09;;;;;;;;;;;17.10;99.90;;;;;;8381815;28;19940;-73
2022/06/05 02:43:24;;;;;;;;;;;17.10;99.90;;;;;;8388283;28;19928;-73
2022/06/05 02:47:46;;;;;;;;;;;17.20;99.90;;;;;;8388067;28;20380;-73
2022/06/05 02:51:48;;;;;;;;;;;17.20;99.90;;;;;;8390513;28;20568;-73
2022/06/05 02:55:50;;;;;;;;;;;17.20;99.90;;;;;;8389855;28;20585;-73
2022/06/05 02:59:51;;;;;;;;;;;17.20;99.90;;;;;;8397324;28;19924;-73
2022/06/05 03:03:53;;;;;;;;;;;17.20;99.90;;;;;;8391723;28;19960;-73
2022/06/05 03:07:55;;;;;;;;;;;17.20;99.90;;;;;;8389296;28;20009;-73
2022/06/05 03:11:56;;;;;;;;;;;17.10;99.90;;;;;;8392723;28;19928;-73
2022/06/05 03:15:58;;;;;;;;;;;17.10;99.90;;;;;;8393616;28;19932;-73
2022/06/05 03:20:00;;;;;;;;;;;17.10;99.90;;;;;;8392935;28;20380;-73
2022/06/05 03:24:01;;;;;;;;;;;17.00;99.90;;;;;;8391345;28;19941;-73
2022/06/05 03:28:03;;;;;;;;;;;17.00;99.90;;;;;;8389672;28;19979;-73
2022/06/05 03:32:05;;;;;;;;;;;16.90;99.90;;;;;;8394870;28;19936;-73
2022/06/05 03:36:08;;;;;;;;;;;16.80;99.90;;;;;;8393855;28;19925;-73
2022/06/05 03:40:12;;;;;;;;;;;16.80;99.90;;;;;;8400181;28;19928;-73
2022/06/05 03:44:13;;;;;;;;;;;16.80;99.90;;;;;;8398949;28;19933;-73
2022/06/05 03:48:16;;;;;;;;;;;16.70;99.90;;;;;;8388958;28;19950;-73
2022/06/05 03:52:18;;;;;;;;;;;16.70;99.90;;;;;;8386392;28;19932;-73
2022/06/05 03:56:21;;;;;;;;;;;16.60;99.90;;;;;;8388555;28;19947;-74
2022/06/05 04:00:23;;;;;;;;;;;16.60;99.90;;;;;;8389365;28;19951;-73
2022/06/05 04:04:24;;;;;;;;;;;16.50;99.90;;;;;;8390930;28;19924;-73
2022/06/05 04:08:26;;;;;;;;;;;16.50;99.90;;;;;;8379211;28;19931;-73
2022/06/05 04:12:28;;;;;;;;;;;16.50;99.90;;;;;;8388999;28;19924;-74
2022/06/05 04:16:30;;;;;;;;;;;16.50;99.90;;;;;;8386596;28;19924;-73
2022/06/05 04:20:33;;;;;;;;;;;16.50;99.90;;;;;;8387818;28;20075;-73
2022/06/05 04:24:34;;;;;;;;;;;16.50;99.90;;;;;;8387033;28;19924;-73
2022/06/05 04:28:37;;;;;;;;;;;16.40;99.90;;;;;;8392354;28;19925;-73
2022/06/05 04:32:38;;;;;;;;;;;16.40;99.90;;;;;;8372983;28;19928;-73
2022/06/05 04:36:40;;;;;;;;;;;16.40;99.90;;;;;;8393114;28;20657;-73
2022/06/05 04:40:42;;;;;;;;;;;16.30;99.90;;;;;;8379753;28;20273;-73
2022/06/05 04:44:43;;;;;;;;;;;16.30;99.90;;;;;;8397121;28;20019;-73
2022/06/05 04:48:45;;;;;;;;;;;16.20;99.90;;;;;;8397354;28;20300;-73
2022/06/05 04:52:47;;;;;;;;;;;16.20;99.90;;;;;;8384513;28;19966;-73
2022/06/05 04:56:48;;;;;;;;;;;16.20;99.90;;;;;;8383299;28;20356;-73
2022/06/05 05:00:50;;;;;;;;;;;16.10;99.90;;;;;;8390501;28;19951;-73
2022/06/05 05:04:52;;;;;;;;;;;16.20;99.90;;;;;;8391568;28;20277;-72
2022/06/05 05:08:54;;;;;;;;;;;16.10;99.90;;;;;;8384413;28;20285;-72
2022/06/05 05:12:55;;;;;;;;;;;16.20;99.90;;;;;;8379836;28;19936;-73
2022/06/05 05:16:57;;;;;;;;;;;16.10;99.90;;;;;;8384212;28;20019;-73
2022/06/05 05:21:09;;;;;;;;;;;16.10;99.90;;;;;;8388117;28;19924;-73
2022/06/05 05:25:12;;;;;;;;;;;16.10;99.90;;;;;;8386373;28;19940;-73
2022/06/05 05:29:13;;;;;;;;;;;16.20;99.90;;;;;;8390705;28;20397;-73
2022/06/05 05:33:15;;;;;;;;;;;16.20;99.90;;;;;;8385536;28;20229;-73
2022/06/05 05:37:16;;;;;;;;;;;16.30;99.90;;;;;;8385740;28;19932;-73
2022/06/05 05:45:39;;;;;;;;;;;16.40;99.90;;;;;;8384104;28;20282;-73
2022/06/05 05:49:40;;;;;;;;;;;16.40;99.90;;;;;;8417163;28;20501;-73
2022/06/05 05:53:44;;;;;;;;;;;16.40;99.90;;;;;;8380695;28;20422;-73
2022/06/05 05:57:46;;;;;;;;;;;16.40;99.90;;;;;;8383140;28;20300;-73
2022/06/05 06:01:48;;;;;;;;;;;16.40;99.90;;;;;;8391878;28;20347;-73
2022/06/05 06:05:50;;;;;;;;;;;16.40;99.90;;;;;;8384443;28;20384;-73
2022/06/05 06:09:52;;;;;;;;;;;16.40;99.90;;;;;;8380142;28;20576;-73
2022/06/05 06:13:56;;;;;;;;;;;16.50;99.90;;;;;;8391293;28;19929;-73
2022/06/05 06:17:58;;;;;;;;;;;16.50;99.90;;;;;;8391657;28;19932;-73
2022/06/05 06:21:59;;;;;;;;;;;16.50;99.90;;;;;;8381472;28;19925;-73
2022/06/05 06:26:05;;;;;;;;;;;16.50;99.90;;;;;;8390873;28;19931;-73
2022/06/05 06:30:07;;;;;;;;;;;16.50;99.90;;;;;;8379811;28;19924;-73
2022/06/05 06:34:09;;;;;;;;;;;16.50;99.90;;;;;;8382929;28;19929;-73
2022/06/05 06:38:10;;;;;;;;;;;16.60;99.90;;;;;;8389998;28;19924;-73
2022/06/05 06:42:12;;;;;;;;;;;16.60;99.90;;;;;;8381654;28;20468;-73
2022/06/05 06:46:15;;;;;;;;;;;16.60;99.90;;;;;;8383369;28;19936;-73
2022/06/05 06:50:17;;;;;;;;;;;16.60;99.90;;;;;;8390782;28;20402;-73
2022/06/05 06:54:19;;;;;;;;;;;16.70;99.90;;;;;;8386942;28;19924;-73
2022/06/05 06:58:20;;;;;;;;;;;16.70;99.90;;;;;;8389487;28;19925;-73
2022/06/05 07:02:22;;;;;;;;;;;16.70;99.90;;;;;;8389695;28;19940;-73
2022/06/05 07:06:24;;;;;;;;;;;16.80;99.90;;;;;;8391873;28;19932;-73
2022/06/05 07:10:26;;;;;;;;;;;16.80;99.90;;;;;;8378638;28;19929;-74
2022/06/05 07:14:27;;;;;;;;;;;16.80;99.90;;;;;;8382693;28;19924;-74
2022/06/05 07:18:29;;;;;;;;;;;16.90;99.90;;;;;;8388556;28;19932;-74
2022/06/05 07:22:31;;;;;;;;;;;16.90;99.90;;;;;;8386041;28;20310;-74
2022/06/05 07:26:33;;;;;;;;;;;17.00;99.90;;;;;;8377170;28;20293;-74
2022/06/05 07:30:34;;;;;;;;;;;17.10;99.90;;;;;;8385861;28;20457;-74
2022/06/05 07:34:37;;;;;;;;;;;17.20;99.90;;;;;;8389252;28;19928;-74
2022/06/05 07:38:43;;;;;;;;;;;17.30;99.90;;;;;;8395476;28;19977;-74
2022/06/05 07:42:45;;;;;;;;;;;17.40;99.90;;;;;;8394483;28;19970;-74
2022/06/05 07:46:47;;;;;;;;;;;17.50;99.90;;;;;;8395248;28;19933;-74
2022/06/05 07:55:20;;;;;;;;;;;17.70;99.90;;;;;;8390866;28;19928;-74
2022/06/05 07:59:22;;;;;;;;;;;17.90;99.90;;;;;;8395718;28;19931;-73
2022/06/05 08:03:29;;;;;;;;;;;18.00;99.90;;;;;;8394186;28;20473;-74
2022/06/05 08:07:33;;;;;;;8.60;5.65;;;18.10;99.90;;;;;;8390505;28;20396;-74
2022/06/05 08:11:36;;;;;;;11.10;6.40;;;18.20;99.90;;;;;;8381182;28;19921;-74
2022/06/05 08:15:42;;;;;;;9.90;6.50;;;18.40;99.90;;;;;;8359987;28;20041;-74
2022/06/05 08:19:44;;;;;;;;;;;18.50;99.90;;;;;;8357908;28;20049;-74
2022/06/05 08:23:46;;;;;;;;;;;18.60;99.90;;;;;;8366293;28;19924;-74
2022/06/05 08:27:48;;;;;;;8.60;6.15;;;18.80;99.90;;;;;;8358743;28;19935;-74
2022/06/05 08:31:50;;;;;;;9.20;6.40;;;18.90;99.90;;;;;;8364499;28;20049;-74
2022/06/05 08:35:51;;;;;;;;;;;19.10;99.90;;;;;;8361643;28;19932;-73
2022/06/05 08:44:19;;;;;;;;;;;19.40;99.90;;;;;;8363179;28;19925;-74
2022/06/05 08:48:27;;;;;;;;;;;19.50;99.90;;;;;;8357463;28;19940;-74
2022/06/05 08:52:37;;;;;;;;;;;19.60;99.90;;;;;;8370229;28;19936;-74
2022/06/05 08:56:40;;;;;;;;;;;19.80;99.90;;;;;;8360499;28;19925;-74
2022/06/05 09:00:50;;;;;;;;;;;19.90;99.90;;;;;;8380791;28;19921;-74
2022/06/05 09:05:00;;;;;;;;;;;20.00;99.90;;;;;;8368420;28;19944;-68
2022/06/05 09:09:06;;;;;;;;;;;20.10;99.90;;;;;;8371392;28;19921;-69
2022/06/05 09:13:24;;;;;;;;;;;20.20;99.90;;;;;;8358737;28;20012;-68
2022/06/05 09:17:26;;;;;;;;;;;20.30;99.90;;;;;;8358056;28;20134;-68
2022/06/05 09:21:44;;;;;;;;;;;20.30;99.90;;;;;;8355690;28;19920;-69
2022/06/05 09:26:05;;;;;;;;;;;20.30;99.90;;;;;;8386794;28;19924;-68
2022/06/05 09:30:23;;;;;;;;;;;20.30;99.90;;;;;;8355872;28;19921;-68
2022/06/05 09:34:54;;;;;;;;;;;20.40;99.90;;;;;;8349355;28;19932;-68
2022/06/05 09:38:59;;;;;;;;;;;20.40;99.90;;;;;;8345232;28;20280;-68
2022/06/05 09:43:19;;;;;;;;;;;20.40;99.90;;;;;;8356248;28;20328;-68
2022/06/05 09:47:31;;;;;;;;;;;20.50;99.90;;;;;;8352384;28;20351;-68
2022/06/05 09:51:36;;;;;;;;;;;20.60;99.90;;;;;;8354566;28;20273;-68
2022/06/05 09:55:44;;;;;;;;;;;20.70;99.90;;;;;;8351140;28;19920;-68
2022/06/05 10:00:08;;;;;;;;;;;20.80;99.90;;;;;;8387159;28;19935;-68
2022/06/05 10:04:09;;;;;;;;;;;20.90;99.90;;;;;;8388842;28;24177;-68
2022/06/05 10:08:17;;;;;;;;;;;21.00;99.90;;;;;;8351268;28;21032;-68
2022/06/05 10:12:24;;;;;;;;;;;21.00;99.90;;;;;;8367024;28;20388;-68
2022/06/05 10:16:31;;;;;;;;;;;21.10;99.90;;;;;;8350508;28;19976;-68
2022/06/05 10:20:51;;;;;;;;;;;21.20;99.90;;;;;;8368925;28;24081;-68
2022/06/05 10:24:58;;;;;;;;;;;21.20;99.90;;;;;;8388381;28;20289;-68
2022/06/05 10:29:10;;;;;;;;;;;21.20;99.90;;;;;;8355438;28;19990;-68
2022/06/05 10:33:16;;;;;;;;;;;21.30;99.90;;;;;;8356970;28;19932;-68
2022/06/05 10:37:20;;;;;;;;;;;21.30;99.90;;;;;;8358981;28;20398;-68
2022/06/05 10:41:32;;;;;;;;;;;21.30;99.90;;;;;;8358532;28;19928;-68
2022/06/05 10:45:39;;;;;;;;;;;21.30;99.90;;;;;;8355633;28;19935;-68
2022/06/05 10:50:01;;;;;;;;;;;21.30;99.90;;;;;;8355347;28;25068;-68
2022/06/05 10:54:22;;;;;;;;;;;21.30;99.90;;;;;;8383573;28;20004;-68
2022/06/05 10:58:27;;;;;;;;;;;21.30;99.90;;;;;;8350104;28;24079;-68
2022/06/05 11:02:41;;;;;;;;;;;21.30;99.90;;;;;;8355505;28;19931;-68
2022/06/05 11:06:54;;;;;;;;;;;21.30;99.90;;;;;;8356886;28;20360;-68
2022/06/05 11:15:42;;;;;;;;;;;21.30;99.90;;;;;;8360201;28;19920;-68
2022/06/05 11:20:03;;;;;;;;;;;21.30;99.90;;;;;;8362438;28;19971;-68
2022/06/05 11:24:07;;;;;;;;;;;21.20;99.90;;;;;;8364128;28;20019;-68
2022/06/05 11:28:28;;;;;;;;;;;21.30;99.90;;;;;;8388096;27;19950;-69
2022/06/05 11:32:48;;;;;;;;;;;21.30;99.90;;;;;;8364315;28;24070;-73
2022/06/05 11:36:53;;;;;;;;;;;21.30;99.90;;;;;;8363316;28;20344;-73
2022/06/05 11:41:05;;;;;;;;;;;21.40;99.90;;;;;;8358752;28;20053;-73
2022/06/05 11:45:19;;;;;;;;;;;21.40;99.90;;;;;;8361336;28;25078;-73
2022/06/05 11:49:42;;;;;;;;;;;21.40;99.90;;;;;;8370913;28;19963;-71
2022/06/05 11:54:02;;;;;;;;;;;21.40;99.90;;;;;;8353669;28;19932;-71
2022/06/05 11:58:07;;;;;;;;;;;21.40;99.90;;;;;;8364580;28;19928;-71
2022/06/05 12:02:08;;;;;;;;;;;21.40;99.90;;;;;;8358041;28;20274;-71
2022/06/05 12:06:18;;;;;;;;;;;21.40;99.90;;;;;;8361312;28;19932;-71
2022/06/05 12:10:26;;;;;;;;;;;21.30;99.90;;;;;;8358423;28;19951;-71
2022/06/05 12:14:27;;;;;;;;;;;21.30;99.90;;;;;;8396203;28;19928;-71
2022/06/05 12:18:36;;;;;;;;;;;21.20;99.90;;;;;;8356686;28;20288;-71
2022/06/05 12:22:41;;;;;;;;;;;21.20;99.90;;;;;;8373433;28;19928;-71
2022/06/05 12:26:43;;;;;;;;;;;21.10;99.90;;;;;;8361492;28;24984;-71
2022/06/05 12:31:11;;;;;;;;;;;21.10;99.90;;;;;;8358917;28;20327;-72
2022/06/05 12:35:33;;;;;;;;;;;21.10;99.90;;;;;;8352282;28;19986;-71
2022/06/05 12:39:37;;;;;;;;;;;21.10;99.90;;;;;;8359112;28;19921;-71
2022/06/05 12:43:44;;;;;;;;;;;21.10;99.90;;;;;;8359642;28;24080;-71
2022/06/05 12:47:57;;;;;;;;;;;21.10;99.90;;;;;;8359929;28;19991;-71
2022/06/05 12:52:12;;;;;;;;;;;21.10;99.90;;;;;;8360589;28;19927;-71
2022/06/05 12:56:34;;;;;;;;;;;21.10;99.90;;;;;;8361463;28;19924;-71
2022/06/05 13:00:40;;;;;;;;;;;21.10;99.90;;;;;;8363043;28;19928;-71
2022/06/05 13:04:45;;;;;;;;;;;21.00;99.90;;;;;;8365237;28;24074;-72
2022/06/05 13:08:59;;;;;;;;;;;21.00;99.90;;;;;;8361022;28;20313;-71
2022/06/05 13:13:09;;;;;;;;;;;21.00;99.90;;;;;;8352935;28;19924;-72
2022/06/05 13:17:17;;;;;;;;;;;20.90;99.90;;;;;;8360746;28;19935;-71
2022/06/05 13:21:37;;;;;;;;;;;20.80;99.90;;;;;;8367219;28;19936;-73
2022/06/05 13:25:44;;;;;;;;;;;20.80;99.90;;;;;;8358000;28;19936;-74
2022/06/05 13:29:54;;;;;;;;;;;20.80;99.90;;;;;;8357787;28;19927;-73
2022/06/05 13:34:11;;;;;;;;;;;20.80;99.90;;;;;;8356249;28;19979;-73
2022/06/05 13:38:27;;;;;;;;;;;20.70;99.90;;;;;;8352458;28;19921;-73
2022/06/05 13:42:32;;;;;;;;;;;20.70;99.90;;;;;;8358187;28;20333;-74
2022/06/05 13:46:40;;;;;;;;;;;20.70;99.90;;;;;;8326866;28;20387;-73
2022/06/05 13:50:48;;;;;;;;;;;20.70;99.90;;;;;;8325999;28;19921;-73
2022/06/05 13:55:09;;;;;;;;;;;20.60;99.90;;;;;;8321829;28;19928;-72
2022/06/05 13:59:13;;;;;;;;;;;20.60;99.90;;;;;;8320701;28;19928;-73
2022/06/05 14:03:17;;;;;;;;;;;20.60;99.90;;;;;;8323173;28;21001;-73
2022/06/05 14:07:22;;;;;;;;;;;20.40;99.90;;;;;;8304361;28;19951;-73
2022/06/05 14:11:47;;;;;;;;;;;20.40;99.90;;;;;;8319999;28;19925;-73
2022/06/05 14:15:53;;;;;;;;;;;20.30;99.90;;;;;;8304368;28;19961;-73
2022/06/05 14:20:00;;;;;;;;;;;20.10;99.90;;;;;;8318129;28;19967;-73
2022/06/05 14:24:14;;;;;;;;;;;20.10;99.90;;;;;;8331400;28;19982;-73
2022/06/05 14:28:16;;;;;;;;;;;20.00;99.90;;;;;;8317360;28;19929;-73
2022/06/05 14:32:24;;;;;;;;;;;20.00;99.90;;;;;;8323270;28;19940;-73
2022/06/05 14:36:34;;;;;;;;;;;20.00;99.90;;;;;;8320587;28;19944;-73
2022/06/05 14:40:54;;;;;;;;;;;20.00;99.90;;;;;;8325984;28;20582;-73
2022/06/05 14:45:04;;;;;;;;;;;20.00;99.90;;;;;;8353524;28;20327;-73
2022/06/05 14:49:31;;;;;;;;;;;19.90;99.90;;;;;;8361976;28;19928;-73
2022/06/05 14:53:52;;;;;;;;;;;19.90;99.90;;;;;;8359077;28;19931;-73
2022/06/05 14:58:09;;;;;;;;;;;19.90;99.90;;;;;;8364945;28;19924;-73
2022/06/05 15:02:17;;;;;;;;;;;19.90;99.90;;;;;;8372448;28;19921;-73
2022/06/05 15:06:22;;;;;;;;;;;19.80;99.90;;;;;;8366072;28;19929;-73
2022/06/05 15:10:24;;;;;;;;;;;19.80;99.90;;;;;;8374612;28;19984;-73
2022/06/05 15:14:43;;;;;;;;;;;19.80;99.90;;;;;;8370449;28;19928;-73
2022/06/05 15:18:45;;;;;;;;;;;19.90;99.90;;;;;;8369907;28;19962;-73
2022/06/05 15:22:58;;;;;;;;;;;19.90;99.90;;;;;;8362858;28;20026;-73
2022/06/05 15:27:03;;;;;;;;;;;19.90;99.90;;;;;;8364787;28;19920;-74
2022/06/05 15:31:28;;;;;;;;;;;19.90;99.90;;;;;;8375478;28;19928;-74
2022/06/05 15:35:40;;;;;;;;;;;19.80;99.90;;;;;;8359902;28;19924;-74
2022/06/05 15:39:48;;;;;;;;;;;19.80;99.90;;;;;;8366137;28;19935;-74
2022/06/05 15:43:50;;;;;;;;;;;19.70;99.90;;;;;;8364839;28;20288;-73
2022/06/05 15:47:51;;;;;;;;;;;19.70;99.90;;;;;;8365313;28;20333;-73
2022/06/05 15:51:59;;;;;;;;;;;19.70;99.90;;;;;;8361529;28;19921;-73
2022/06/05 15:56:17;;;;;;;;;;;19.70;99.90;;;;;;8361602;28;19931;-73
2022/06/05 16:00:20;;;;;;;;;;;19.60;99.90;;;;;;8367052;28;21431;-73
2022/06/05 16:04:23;;;;;;;;;;;19.60;99.90;;;;;;8367716;28;19935;-73
2022/06/05 16:08:27;;;;;;;;;;;19.50;99.90;;;;;;8370244;28;19928;-73
2022/06/05 16:12:30;;;;;;;;;;;19.50;99.90;;;;;;8366559;28;20342;-72
2022/06/05 16:16:51;;;;;;;;;;;19.50;99.90;;;;;;8364624;28;19925;-73
2022/06/05 16:20:52;;;;;;;;;;;19.50;99.90;;;;;;8364383;28;19939;-73
2022/06/05 16:24:59;;;;;;;;;;;19.40;99.90;;;;;;8362735;28;19921;-73
2022/06/05 16:29:05;;;;;;;;;;;19.40;99.90;;;;;;8358290;28;19947;-73
2022/06/05 16:33:41;;;;;;;;;;;19.40;99.90;;;;;;8365110;28;19921;-73
2022/06/05 16:37:53;;;;;;;;;;;19.30;99.90;;;;;;8357612;28;20403;-73
2022/06/05 16:41:59;;;;;;;;;;;19.30;99.90;;;;;;8359706;28;20226;-73
2022/06/05 16:46:00;;;;;;;;;;;19.30;99.90;;;;;;8362085;28;20365;-73
2022/06/05 16:50:05;;;;;;;;;;;19.30;99.90;;;;;;8358714;28;19935;-73
2022/06/05 16:54:10;;;;;;;;;;;19.30;99.90;;;;;;8353339;28;19927;-73
2022/06/05 16:58:30;;;;;;;;;;;19.30;99.90;;;;;;8373046;28;19921;-73
2022/06/05 17:02:40;;;;;;;;;;;19.20;99.90;;;;;;8364022;28;19931;-74
2022/06/05 17:07:10;;;;;;;;;;;19.10;99.90;;;;;;8361836;28;20203;-73
2022/06/05 17:11:25;;;;;;;;;;;19.10;99.90;;;;;;8363589;28;19932;-73
2022/06/05 17:15:39;;;;;;;;;;;19.10;99.90;;;;;;8359475;28;19936;-73
2022/06/05 17:19:42;;;;;;;;;;;19.10;99.90;;;;;;8358457;28;19924;-74
2022/06/05 17:23:47;;;;;;;;;;;19.10;99.90;;;;;;8359892;28;19931;-74
2022/06/05 17:27:55;;;;;;;;;;;19.10;99.90;;;;;;8356384;28;20260;-74
2022/06/05 17:32:06;;;;;;;;;;;19.10;99.90;;;;;;8363269;28;19987;-74
2022/06/05 17:36:16;;;;;;;;;;;19.10;99.90;;;;;;8364465;28;19960;-74
2022/06/05 17:40:45;;;;;;;;;;;19.10;99.90;;;;;;8359909;28;19975;-74
2022/06/05 17:44:52;;;;;;;;;;;19.00;99.90;;;;;;8370716;28;19927;-74
2022/06/05 17:49:12;;;;;;;;;;;19.00;99.90;;;;;;8358673;28;20023;-74
2022/06/05 17:53:18;;;;;;;;;;;19.10;99.90;;;;;;8358567;28;19932;-74
2022/06/05 17:57:23;;;;;;;;;;;19.00;99.90;;;;;;8364943;28;20295;-74
2022/06/05 18:01:25;;;;;;;;;;;19.00;99.90;;;;;;8362210;28;20300;-75
2022/06/05 18:05:28;;;;;;;;;;;18.90;99.90;;;;;;8365864;28;19970;-74
2022/06/05 18:09:31;;;;;;;;;;;18.90;99.90;;;;;;8373478;28;19925;-74
2022/06/05 18:13:50;;;;;;;;;;;18.90;99.90;;;;;;8375679;28;19924;-74
2022/06/05 18:18:00;;;;;;;;;;;18.80;99.90;;;;;;8365176;28;20356;-74
2022/06/05 18:22:12;;;;;;;;;;;18.80;99.90;;;;;;8362113;28;19928;-74
2022/06/05 18:26:17;;;;;;;;;;;18.70;99.90;;;;;;8361088;28;19924;-74
2022/06/05 18:30:21;;;;;;;;;;;18.60;99.90;;;;;;8362477;28;19928;-73
2022/06/05 18:34:26;;;;;;;;;;;18.60;99.90;;;;;;8362088;28;20365;-74
2022/06/05 18:38:31;;;;;;;;;;;18.50;99.90;;;;;;8368113;28;19924;-74
2022/06/05 18:42:35;;;;;;;;;;;18.40;99.90;;;;;;8359407;28;20291;-74
2022/06/05 18:46:37;;;;;;;;;;;18.30;99.90;;;;;;8365757;28;19987;-74
2022/06/05 18:50:41;;;;;;;;;;;18.20;99.90;;;;;;8360997;28;20287;-74
2022/06/05 18:54:45;;;;;;;;;;;18.10;99.90;;;;;;8365677;28;19939;-74
2022/06/05 18:58:47;;;;;;;;;;;18.10;99.90;;;;;;8358497;28;19928;-73
2022/06/05 19:02:51;;;;;;;;;;;18.00;99.90;;;;;;8357726;28;19920;-74
2022/06/05 19:06:53;;;;;;;;;;;18.00;99.90;;;;;;8357681;28;20631;-73
2022/06/05 19:10:58;;;;;;;;;;;18.00;99.90;;;;;;8356859;28;19920;-73
2022/06/05 19:15:13;;;;;;;;;;;18.00;99.90;;;;;;8355621;28;19982;-74
2022/06/05 19:19:26;;;;;;;;;;;18.00;99.90;;;;;;8356091;28;20288;-74
2022/06/05 19:23:41;;;;;;;;;;;18.00;99.90;;;;;;8362869;28;19925;-74
2022/06/05 19:27:53;;;;;;;;;;;18.00;99.90;;;;;;8374934;28;19921;-74
2022/06/05 19:31:59;;;;;;;;;;;17.90;99.90;;;;;;8365906;28;20557;-74
2022/06/05 19:40:29;;;;;;;;;;;17.90;99.90;;;;;;8362909;28;19959;-74
2022/06/05 19:44:35;;;;;;;;;;;17.90;99.90;;;;;;8378451;28;19940;-74
2022/06/05 19:48:40;;;;;;;;;;;17.90;99.90;;;;;;8360005;28;19951;-74
2022/06/05 19:52:43;;;;;;;;;;;17.90;99.90;;;;;;8361974;28;20241;-74
2022/06/05 19:56:45;;;;;;;;;;;17.90;99.90;;;;;;8377744;28;19962;-73
2022/06/05 20:01:07;;;;;;;;;;;17.90;99.90;;;;;;8378675;28;19947;-74
2022/06/05 20:05:18;;;;;;;;;;;17.80;99.90;;;;;;8360764;28;19925;-73
2022/06/05 20:09:23;;;;;;;;;;;17.80;99.90;;;;;;8361018;28;24547;-75
2022/06/05 20:13:30;;;;;;;;;;;17.70;99.90;;;;;;8363010;28;19928;-73
2022/06/05 20:17:33;;;;;;;;;;;17.60;99.90;;;;;;8360694;28;19998;-74
2022/06/05 20:21:35;;;;;;;;;;;17.60;99.90;;;;;;8361453;28;19925;-73
2022/06/05 20:25:42;;;;;;;;;;;17.50;99.90;;;;;;8363286;28;19927;-74
2022/06/05 20:29:47;;;;;;;;;;;17.50;99.90;;;;;;8375453;28;19920;-73
2022/06/05 20:34:07;;;;;;;;;;;17.40;99.90;;;;;;8358548;28;19928;-73
2022/06/05 20:38:09;;;;;;;;;;;17.40;99.90;;;;;;8360056;28;19940;-74
2022/06/05 20:42:12;;;;;;;;;;;17.30;99.90;;;;;;8354768;28;19925;-73
2022/06/05 20:46:22;;;;;;;;;;;17.20;99.90;;;;;;8361518;28;19925;-73
2022/06/05 20:50:28;;;;;;;;;;;17.10;99.90;;;;;;8362276;28;19927;-74
2022/06/05 20:54:31;;;;;;;;;;;17.00;99.90;;;;;;8358363;28;19935;-73
2022/06/05 20:58:38;;;;;;;;;;;16.80;99.90;;;;;;8360744;28;19947;-73
2022/06/05 21:07:09;;;;;;;;;;;16.70;99.90;;;;;;8385000;28;20339;-74
2022/06/05 21:20:00;;;;;;;;;;;16.60;99.90;;;;;;8386030;28;20384;-73
2022/06/05 21:24:03;;;;;;;;;;;16.50;99.90;;;;;;8386242;28;19928;-74
2022/06/05 21:28:21;;;;;;;;;;;16.50;99.90;;;;;;8386075;28;19924;-73
2022/06/05 21:32:49;;;;;;;;;;;16.50;99.90;;;;;;8387276;28;19921;-73
2022/06/05 21:36:50;;;;;;;;;;;16.50;99.90;;;;;;8381126;28;19931;-73
2022/06/05 21:40:58;;;;;;;;;;;16.50;99.90;;;;;;8382718;28;20003;-73
2022/06/05 21:45:08;;;;;;;;;;;16.50;99.90;;;;;;8382661;28;20368;-73
2022/06/05 21:49:10;;;;;;;;;;;16.50;99.90;;;;;;8383928;28;20395;-73
2022/06/05 21:53:14;;;;;;;;;;;16.50;99.90;;;;;;8385564;28;19951;-73
2022/06/05 21:57:18;;;;;;;;;;;16.50;99.90;;;;;;8386323;28;20371;-73
2022/06/05 22:01:20;;;;;;;;;;;16.50;99.90;;;;;;8388788;28;19970;-73
2022/06/05 22:05:22;;;;;;;;;;;16.50;99.90;;;;;;8385046;28;19929;-73
2022/06/05 22:09:24;;;;;;;;;;;16.50;99.90;;;;;;8374453;28;19928;-73
2022/06/05 22:13:27;;;;;;;;;;;16.50;99.90;;;;;;8387758;28;19925;-73
2022/06/05 22:17:29;;;;;;;;;;;16.40;99.90;;;;;;8384537;28;19931;-73
2022/06/05 22:21:32;;;;;;;;;;;16.40;99.90;;;;;;8390112;28;19936;-73
2022/06/05 22:25:37;;;;;;;;;;;16.30;99.90;;;;;;8381133;28;19932;-74
2022/06/05 22:29:39;;;;;;;;;;;16.20;99.90;;;;;;8385394;28;19939;-74
2022/06/05 22:33:41;;;;;;;;;;;16.10;99.90;;;;;;8386288;28;19925;-74
2022/06/05 22:37:46;;;;;;;;;;;16.00;99.90;;;;;;8380925;28;19982;-74
2022/06/05 22:41:47;;;;;;;;;;;16.00;99.90;;;;;;8385154;28;19920;-74
2022/06/05 22:45:49;;;;;;;;;;;15.90;99.90;;;;;;8388158;28;19936;-74
2022/06/05 22:49:51;;;;;;;;;;;15.70;99.90;;;;;;8384006;28;19924;-74
2022/06/05 22:53:52;;;;;;;;;;;15.70;99.90;;;;;;8387760;28;19927;-74
2022/06/05 22:57:54;;;;;;;;;;;15.60;99.90;;;;;;8385953;28;19928;-74
2022/06/05 23:01:56;;;;;;;;;;;15.60;99.90;;;;;;8395597;28;19940;-74
2022/06/05 23:05:58;;;;;;;;;;;15.60;99.90;;;;;;8392904;28;19935;-74
2022/06/05 23:09:59;;;;;;;;;;;15.60;99.90;;;;;;8393396;28;19927;-74
2022/06/05 23:14:01;;;;;;;;;;;15.50;99.90;;;;;;8388813;28;20218;-74
2022/06/05 23:18:03;;;;;;;;;;;15.40;99.90;;;;;;8379618;28;19947;-74
2022/06/05 23:22:12;;;;;;;;;;;15.30;99.90;;;;;;8384464;28;19924;-74
2022/06/05 23:26:15;;;;;;;;;;;15.20;99.90;;;;;;8378856;28;19920;-74
2022/06/05 23:30:16;;;;;;;;;;;15.10;99.90;;;;;;8400276;28;19943;-74
2022/06/05 23:39:22;;;;;;;;;;;15.00;99.90;;;;;;8383294;28;19939;-74
2022/06/05 23:43:25;;;;;;;;;;;14.90;99.90;;;;;;8389339;28;19921;-74
2022/06/05 23:47:26;;;;;;;;;;;14.90;99.90;;;;;;8393270;28;19947;-74
2022/06/05 23:51:29;;;;;;;;;;;14.80;99.90;;;;;;8389071;28;19927;-74
2022/06/05 23:55:31;;;;;;;;;;;14.80;99.90;;;;;;8390628;28;19924;-74
2022/06/05 23:59:33;;;;;;;;;;;14.80;99.90;;;;;;8389247;28;19927;-74
